Terminal Aerodrome Forecast
Issued by NWS

Home | Current Version | Previous Version | Graphics & Text | Print | Product List | Glossary On
Versions: 1 2 3 4 5 6 7 8 9 10 11 12 13 14 15 16 17 18 19 20 21 22 23 24 25 26 27 28 29 30 31 32
000
FTUS43 KBIS 282300
TAFMOT
TAF
KMOT 282328Z 2900/2924 28030G43KT 5SM -TSRA BLDU BKN080CB
     FM290300 26021G32KT 5SM -SHRA BKN045
     FM290700 30029G42KT P6SM OVC022
     FM291600 30022G33KT P6SM SCT060
     FM292200 30016G24KT P6SM SCT150=

USA.gov is the U.S. government's official web portal to all federal, state and local government web resources and services.